Berit — ZDHX2 — position and weather

sailwx.info

Track history (hours):
 
Tides and Currents Weather Stations Pressure Air Temp Water Temp Dewpoint Dewpoint Depression Visibility Wind Speed Wind Dir Waves Ship Positions

Berit

Last reported at 2015-Mar-05 03:26 UTC. Time now 2015-Mar-05 04:07 UTC.
Position N 59°54' E 010°45'.

Length 83 m; draft 4 m.

Type: Cargo ship. MMSI: 236386000.

Date/timePositionNaut miles runAvg speedWind from/ knotsBaromVisibWave heightAir tempDewpointWater temp
2015-Mar-05 03:26N 59°54' E 010°45'0 0.0
2015-Mar-05 02:29N 59°54' E 010°45'0 0.0
2015-Mar-05 01:29N 59°54' E 010°45'0 0.0
2015-Mar-05 00:29N 59°54' E 010°45'0 0.0
2015-Mar-04 23:32N 59°54' E 010°45'0 0.0
2015-Mar-04 22:29N 59°54' E 010°45'0 0.0
2015-Mar-04 21:20N 59°54' E 010°45'0 0.0
2015-Mar-04 20:32N 59°54' E 010°45'0 0.0
2015-Mar-04 19:32N 59°54' E 010°45'0 0.0
2015-Mar-04 18:32N 59°54' E 010°45'0 0.0
2015-Mar-04 17:23N 59°54' E 010°45'0 0.0
2015-Mar-04 16:26N 59°54' E 010°45'0 0.0
2015-Mar-04 15:26N 59°54' E 010°45'0 0.0
2015-Mar-04 14:26N 59°54' E 010°45'0 0.0
2015-Mar-04 13:26N 59°54' E 010°45'0 0.0
2015-Mar-04 12:29N 59°54' E 010°45'0 0.0
2015-Mar-04 11:26N 59°54' E 010°45'0 0.0
2015-Mar-04 10:29N 59°54' E 010°45'0 0.0
2015-Mar-04 09:32N 59°54' E 010°45'0 0.0
2015-Mar-04 08:29N 59°54' E 010°45'0 0.0
2015-Mar-04 07:29N 59°54' E 010°45'0 0.0
2015-Mar-04 06:32N 59°54' E 010°45'0 0.0
2015-Mar-04 05:23N 59°54' E 010°45'0 0.0
2015-Mar-04 04:08N 59°54' E 010°45'0 0.0
2015-Mar-04 03:23N 59°54' E 010°45'0 0.0
2015-Mar-04 02:26N 59°54' E 010°45'0 0.0
2015-Mar-04 01:23N 59°54' E 010°45'0 0.0
2015-Mar-04 00:23N 59°54' E 010°45'0 0.0
2015-Mar-03 23:29N 59°54' E 010°45'0 0.0
2015-Mar-03 22:26N 59°54' E 010°45'0 0.0
2015-Mar-03 21:29N 59°54' E 010°45'0 0.0
2015-Mar-03 20:29N 59°54' E 010°45'0 0.0
2015-Mar-03 19:17N 59°54' E 010°45'0 0.0
2015-Mar-03 18:32N 59°54' E 010°45'0 0.0
2015-Mar-03 17:29N 59°54' E 010°45'0 0.0
2015-Mar-03 16:32N 59°54' E 010°45'0 0.0
2015-Mar-03 15:23N 59°54' E 010°45'0 0.0
2015-Mar-03 14:32N 59°54' E 010°45'0 0.0
2015-Mar-03 13:28N 59°54' E 010°45'0 0.0
2015-Mar-03 12:31N 59°54' E 010°45'0 0.0
2015-Mar-03 11:31N 59°54' E 010°45'0 0.0
2015-Mar-03 10:31N 59°54' E 010°45'1 1.1
2015-Mar-03 09:33N 59°53' E 010°43'17 8.4
2015-Mar-03 07:30N 59°36' E 010°38'9 9.5
2015-Mar-03 06:34N 59°28' E 010°34'9 9.2
2015-Mar-03 05:34N 59°18' E 010°36'9 9.4
2015-Mar-03 04:33N 59°09' E 010°37'9 9.4
2015-Mar-03 03:33N 58°60' E 010°34'70 8.6
2015-Mar-02 19:25N 58°17' E 008°47'7 8.7
2015-Mar-02 18:33N 58°12' E 008°36'9 9.0
2015-Mar-02 17:32N 58°06' E 008°23'62 8.6
2015-Mar-02 10:23N 58°05' E 006°26'7 8.1
2015-Mar-02 09:33N 58°09' E 006°16'8 8.1
2015-Mar-02 08:33N 58°15' E 006°06'8 8.1
2015-Mar-02 07:33N 58°20' E 005°54'8 7.5
2015-Mar-02 06:33N 58°25' E 005°44'7 7.1
2015-Mar-02 05:33N 58°30' E 005°34'15 7.3
2015-Mar-02 03:29N 58°43' E 005°19'7 7.3
2015-Mar-02 02:34N 58°49' E 005°12'8 7.7
2015-Mar-02 01:33N 58°55' E 005°04'10 7.7
2015-Mar-02 00:16N 59°04' E 004°54'  
2015-Feb-27 09:11N 63°20' E 007°04'20 6.8
2015-Feb-27 06:19N 63°34' E 007°34'200 6.7
2015-Feb-26 00:21N 66°17' E 012°10'8 9.5
2015-Feb-25 23:33N 66°15' E 012°28'40 1.0
2015-Feb-24 07:10N 66°18' E 014°07'  
Track history (hours):
 
Tides and Currents Weather Stations Pressure Air Temp Water Temp Dewpoint Dewpoint Depression Visibility Wind Speed Wind Dir Waves Ship Positions

Berit

Last reported at 2015-Mar-05 03:26 UTC. Time now 2015-Mar-05 04:07 UTC.
Position N 59°54' E 010°45'.

Length 83 m; draft 4 m.

Type: Cargo ship. MMSI: 236386000.

Date/timePositionNaut miles runAvg speedWind from/ knotsBaromVisibWave heightAir tempDewpointWater temp
2015-Mar-05 03:26N 59°54' E 010°45'0 0.0
2015-Mar-05 02:29N 59°54' E 010°45'0 0.0
2015-Mar-05 01:29N 59°54' E 010°45'0 0.0
2015-Mar-05 00:29N 59°54' E 010°45'0 0.0
2015-Mar-04 23:32N 59°54' E 010°45'0 0.0
2015-Mar-04 22:29N 59°54' E 010°45'0 0.0
2015-Mar-04 21:20N 59°54' E 010°45'0 0.0
2015-Mar-04 20:32N 59°54' E 010°45'0 0.0
2015-Mar-04 19:32N 59°54' E 010°45'0 0.0
2015-Mar-04 18:32N 59°54' E 010°45'0 0.0
2015-Mar-04 17:23N 59°54' E 010°45'0 0.0
2015-Mar-04 16:26N 59°54' E 010°45'0 0.0
2015-Mar-04 15:26N 59°54' E 010°45'0 0.0
2015-Mar-04 14:26N 59°54' E 010°45'0 0.0
2015-Mar-04 13:26N 59°54' E 010°45'0 0.0
2015-Mar-04 12:29N 59°54' E 010°45'0 0.0
2015-Mar-04 11:26N 59°54' E 010°45'0 0.0
2015-Mar-04 10:29N 59°54' E 010°45'0 0.0
2015-Mar-04 09:32N 59°54' E 010°45'0 0.0
2015-Mar-04 08:29N 59°54' E 010°45'0 0.0
2015-Mar-04 07:29N 59°54' E 010°45'0 0.0
2015-Mar-04 06:32N 59°54' E 010°45'0 0.0
2015-Mar-04 05:23N 59°54' E 010°45'0 0.0
2015-Mar-04 04:08N 59°54' E 010°45'0 0.0
2015-Mar-04 03:23N 59°54' E 010°45'0 0.0
2015-Mar-04 02:26N 59°54' E 010°45'0 0.0
2015-Mar-04 01:23N 59°54' E 010°45'0 0.0
2015-Mar-04 00:23N 59°54' E 010°45'0 0.0
2015-Mar-03 23:29N 59°54' E 010°45'0 0.0
2015-Mar-03 22:26N 59°54' E 010°45'0 0.0
2015-Mar-03 21:29N 59°54' E 010°45'0 0.0
2015-Mar-03 20:29N 59°54' E 010°45'0 0.0
2015-Mar-03 19:17N 59°54' E 010°45'0 0.0
2015-Mar-03 18:32N 59°54' E 010°45'0 0.0
2015-Mar-03 17:29N 59°54' E 010°45'0 0.0
2015-Mar-03 16:32N 59°54' E 010°45'0 0.0
2015-Mar-03 15:23N 59°54' E 010°45'0 0.0
2015-Mar-03 14:32N 59°54' E 010°45'0 0.0
2015-Mar-03 13:28N 59°54' E 010°45'0 0.0
2015-Mar-03 12:31N 59°54' E 010°45'0 0.0
2015-Mar-03 11:31N 59°54' E 010°45'0 0.0
2015-Mar-03 10:31N 59°54' E 010°45'1 1.1
2015-Mar-03 09:33N 59°53' E 010°43'17 8.4
2015-Mar-03 07:30N 59°36' E 010°38'9 9.5
2015-Mar-03 06:34N 59°28' E 010°34'9 9.2
2015-Mar-03 05:34N 59°18' E 010°36'9 9.4
2015-Mar-03 04:33N 59°09' E 010°37'9 9.4
2015-Mar-03 03:33N 58°60' E 010°34'70 8.6
2015-Mar-02 19:25N 58°17' E 008°47'7 8.7
2015-Mar-02 18:33N 58°12' E 008°36'9 9.0
2015-Mar-02 17:32N 58°06' E 008°23'62 8.6
2015-Mar-02 10:23N 58°05' E 006°26'7 8.1
2015-Mar-02 09:33N 58°09' E 006°16'8 8.1
2015-Mar-02 08:33N 58°15' E 006°06'8 8.1
2015-Mar-02 07:33N 58°20' E 005°54'8 7.5
2015-Mar-02 06:33N 58°25' E 005°44'7 7.1
2015-Mar-02 05:33N 58°30' E 005°34'15 7.3
2015-Mar-02 03:29N 58°43' E 005°19'7 7.3
2015-Mar-02 02:34N 58°49' E 005°12'8 7.7
2015-Mar-02 01:33N 58°55' E 005°04'10 7.7
2015-Mar-02 00:16N 59°04' E 004°54'  
2015-Feb-27 09:11N 63°20' E 007°04'20 6.8
2015-Feb-27 06:19N 63°34' E 007°34'200 6.7
2015-Feb-26 00:21N 66°17' E 012°10'8 9.5
2015-Feb-25 23:33N 66°15' E 012°28'40 1.0
2015-Feb-24 07:10N 66°18' E 014°07'  

Dump ship's entire track history